Terminal Aerodrome Forecast
Issued by NWS

Home | Current Version | Previous Version | Text Only | Print | Product List | Glossary On
Versions: 1 2 3 4 5 6 7 8 9 10 11 12 13
814
FTUS43 KMQT 201141
TAFIWD
TAF
KIWD 201141Z 2012/2112 15011G19KT P6SM BKN200 WS010/18040KT
     FM201800 16011G22KT P6SM VCSH OVC090 WS010/17050KT
     FM202100 16012G23KT 6SM -SHRA OVC025 WS010/17045KT
     FM202300 17013G23KT 6SM -SHRA BR OVC015 WS010/18045KT
     FM210100 19012G17KT 5SM -SHRA BR OVC008
     FM210600 26010KT P6SM BKN003
     FM210900 24007KT P6SM SCT008=

USA.gov is the U.S. government's official web portal to all federal, state and local government web resources and services.